Chifeng, China
Current Conditions -  °F | °C
As of 6:00 AM on Wednesday 26 Nov 2014 (Local Time) from ZBAA Reporting Station
Haze Haze  
Wind Chill: 30°   Ceiling: Unl
Heat Index: 30°   Visibility: 1.8mi
Dew Point: 28°   Wind: 2mph
Humidity: 93%   Direction: NA
Pressure: 29.97"   Gusts: NA
Location:  42.27°N, 118.95°E
Report Text: ZBAA 252200Z VRB01MPS 3000 BR NSC M01/M02 Q1015 BECMGTL22402500 BR
Loading
Personal Weather Stations






























Interactive Weather Map New forecast layout! Learn more

10-Day Weather Forecast

Advertisements
Track Severe Weather on mobile